Time;durP1;ratioP1;P1;durP2;ratioP2;P2;SDS_P1;SDS_P2;PMS_P1;PMS_P2;Temp;Humidity;BMP_temperature;BMP_pressure;BME280_temperature;BME280_humidity;BME280_pressure;Samples;Min_cycle;Max_cycle;Signal;HPM_P1;HPM_P2
2023/10/10 00:02:18;;;;;;;6.83;3.63;;;;;;;13.71;58.92;97233.47;4991438;28;20197;-87
2023/10/10 00:04:48;;;;;;;7.53;3.13;;;;;;;13.61;59.42;97238.34;4990255;28;20199;-85
2023/10/10 00:07:16;;;;;;;7.43;3.80;;;;;;;13.76;58.66;97218.47;4991019;28;20263;-82
2023/10/10 00:09:45;;;;;;;6.17;3.10;;;;;;;13.77;58.42;97226.19;4990367;28;20207;-82
2023/10/10 00:12:26;;;;;;;9.33;3.43;;;;;;;13.86;58.58;97230.03;4990678;28;20203;-78
2023/10/10 00:14:56;;;;;;;9.90;4.30;;;;;;;13.82;57.83;97194.69;4990411;28;20688;-72
2023/10/10 00:17:34;;;;;;;5.57;3.23;;;;;;;13.95;58.34;97213.06;4990406;28;20182;-75
2023/10/10 00:20:16;;;;;;;7.03;2.87;;;;;;;13.93;58.01;97199.28;4989551;28;20194;-78
2023/10/10 00:22:48;;;;;;;4.37;2.90;;;;;;;13.90;58.57;97213.31;4988616;28;20669;-72
2023/10/10 00:25:17;;;;;;;6.93;3.40;;;;;;;13.73;58.45;97221.22;4988877;28;20211;-75
2023/10/10 00:27:46;;;;;;;6.10;2.90;;;;;;;13.48;58.50;97218.28;4989976;28;20223;-72
2023/10/10 00:30:15;;;;;;;6.53;2.60;;;;;;;13.40;59.34;97199.66;4990216;28;20195;-72
2023/10/10 00:32:45;;;;;;;7.03;2.87;;;;;;;13.25;60.09;97210.91;4989074;28;20579;-72
2023/10/10 00:35:17;;;;;;;10.53;3.60;;;;;;;13.15;61.54;97218.31;4972237;28;20644;-71
2023/10/10 00:37:45;;;;;;;5.70;3.10;;;;;;;13.35;60.98;97212.06;4990441;28;20211;-73
2023/10/10 00:40:25;;;;;;;2.93;2.27;;;;;;;13.45;61.20;97215.84;4988239;28;20206;-74
2023/10/10 00:42:52;;;;;;;6.83;2.50;;;;;;;12.93;61.61;97199.56;4989693;28;20239;-79
2023/10/10 00:45:21;;;;;;;3.47;2.53;;;;;;;12.82;61.98;97202.72;4988987;28;20696;-72
2023/10/10 00:47:52;;;;;;;5.93;2.53;;;;;;;13.01;61.15;97195.63;4989760;28;20333;-73
2023/10/10 00:50:24;;;;;;;4.70;2.67;;;;;;;13.20;60.55;97198.13;4989164;28;20802;-77
2023/10/10 00:52:56;;;;;;;7.10;2.50;;;;;;;13.16;60.72;97191.41;4988297;28;20230;-76
2023/10/10 00:55:24;;;;;;;5.43;2.43;;;;;;;13.36;60.02;97201.59;4989918;28;20760;-72
2023/10/10 00:57:56;;;;;;;5.33;2.90;;;;;;;13.46;59.38;97215.75;4988435;28;20270;-72
2023/10/10 01:00:29;;;;;;;5.20;2.63;;;;;;;13.43;59.51;97204.69;4989456;28;20600;-74
2023/10/10 01:03:45;;;;;;;3.87;2.37;;;;;;;13.16;59.07;97200.97;4989722;28;20192;-73
2023/10/10 01:05:53;;;;;;;5.20;2.50;;;;;;;13.14;60.33;97214.06;4988690;28;20289;-75
2023/10/10 01:08:26;;;;;;;5.60;2.70;;;;;;;13.34;59.23;97205.19;4989834;28;20229;-72
2023/10/10 01:11:00;;;;;;;4.97;2.90;;;;;;;13.35;58.77;97207.72;4989258;28;20207;-72
2023/10/10 01:13:27;;;;;;;6.47;2.60;;;;;;;13.43;57.73;97179.53;4989150;28;20732;-75
2023/10/10 01:15:56;;;;;;;8.83;4.53;;;;;;;13.14;57.75;97200.22;4988169;28;20195;-71
2023/10/10 01:18:24;;;;;;;6.60;3.93;;;;;;;13.14;58.30;97205.41;4988984;28;20194;-71
2023/10/10 01:20:52;;;;;;;7.23;3.67;;;;;;;12.81;58.80;97190.66;4989722;28;20214;-73
2023/10/10 01:23:26;;;;;;;5.77;3.80;;;;;;;12.81;58.66;97198.44;4988726;28;20286;-74
2023/10/10 01:26:05;;;;;;;6.90;3.30;;;;;;;13.11;58.67;97192.59;4987827;28;20207;-72
2023/10/10 01:28:36;;;;;;;7.90;4.50;;;;;;;13.23;57.62;97197.13;4989128;28;20207;-73
2023/10/10 01:31:10;;;;;;;6.53;3.70;;;;;;;13.20;58.65;97197.28;4987603;28;20192;-72
2023/10/10 01:33:42;;;;;;;8.73;3.03;;;;;;;13.36;58.16;97200.72;4987993;28;20589;-78
2023/10/10 01:36:16;;;;;;;7.40;3.13;;;;;;;13.45;57.61;97200.25;4988412;28;20230;-72
2023/10/10 01:39:07;;;;;;;5.33;2.50;;;;;;;13.24;59.07;97212.66;4988003;28;20218;-75
2023/10/10 01:41:41;;;;;;;6.63;2.87;;;;;;;12.95;60.84;97214.16;4988750;28;20222;-86
2023/10/10 01:44:12;;;;;;;5.73;3.17;;;;;;;13.22;60.47;97216.25;4987365;28;20217;-87
2023/10/10 01:46:40;;;;;;;5.40;3.30;;;;;;;13.00;61.08;97193.13;4989215;28;20232;-82
2023/10/10 01:49:20;;;;;;;4.93;3.07;;;;;;;12.97;61.68;97201.91;4988391;28;20202;-84
2023/10/10 01:51:55;;;;;;;7.00;3.20;;;;;;;13.12;62.10;97195.09;4989038;28;20191;-79
2023/10/10 01:54:52;;;;;;;4.33;2.77;;;;;;;13.39;60.75;97198.81;4987766;28;20231;-87
2023/10/10 01:57:21;;;;;;;4.17;2.50;;;;;;;13.56;59.76;97195.31;4987554;28;20192;-83
2023/10/10 01:59:54;;;;;;;5.43;2.97;;;;;;;13.64;58.65;97186.13;4986972;28;20690;-86
2023/10/10 02:02:24;;;;;;;9.10;2.60;;;;;;;13.63;58.53;97191.44;4954157;28;20194;-87
2023/10/10 02:04:56;;;;;;;4.47;2.57;;;;;;;13.63;58.82;97176.66;4994891;28;20189;-88
2023/10/10 02:07:30;;;;;;;6.27;2.70;;;;;;;13.73;58.96;97176.97;5007224;28;20226;-84
2023/10/10 02:10:14;;;;;;;3.47;2.20;;;;;;;13.79;58.69;97187.88;5007084;28;20198;-84
2023/10/10 02:12:45;;;;;;;5.53;2.50;;;;;;;13.84;58.90;97185.03;5007518;28;20717;-87
2023/10/10 02:15:18;;;;;;;8.30;2.60;;;;;;;13.78;58.70;97186.22;5005638;28;20190;-86
2023/10/10 02:17:51;;;;;;;6.70;2.00;;;;;;;13.68;59.58;97172.03;4989879;28;20626;-78
2023/10/10 02:25:39;;;;;;;5.80;2.83;;;;;;;12.61;62.80;97183.03;5007548;28;20286;-86
2023/10/10 02:28:20;;;;;;;10.50;3.40;;;;;;;12.74;62.91;97184.09;5006792;28;20221;-87
2023/10/10 02:30:52;;;;;;;3.97;2.57;;;;;;;12.95;62.32;97176.91;5006995;28;20250;-85
2023/10/10 02:35:55;;;;;;;4.87;3.00;;;;;;;12.87;62.35;97172.13;5006687;28;20190;-86
2023/10/10 02:39:12;;;;;;;5.27;2.73;;;;;;;12.87;62.62;97185.13;5007277;28;20199;-85
2023/10/10 02:46:34;;;;;;;6.57;3.13;;;;;;;12.98;61.89;97187.16;5005248;28;20206;-70
2023/10/10 02:49:09;;;;;;;11.47;3.50;;;;;;;13.06;62.05;97185.03;5006328;28;20188;-69
2023/10/10 02:51:40;;;;;;;9.23;3.00;;;;;;;13.20;62.08;97190.34;5006913;28;20605;-70
2023/10/10 03:00:15;;;;;;;5.80;2.70;;;;;;;13.19;61.37;97187.81;5007667;28;20293;-72
2023/10/10 03:02:54;;;;;;;3.83;2.67;;;;;;;13.04;60.75;97172.09;4989283;28;20256;-77
2023/10/10 03:05:40;;;;;;;5.53;2.97;;;;;;;12.99;61.54;97192.28;5005843;28;20248;-78
2023/10/10 03:08:15;;;;;;;5.20;2.70;;;;;;;12.95;61.45;97189.91;4988976;28;20277;-71
2023/10/10 03:10:54;;;;;;;7.47;2.73;;;;;;;12.97;62.49;97172.47;5006951;28;20889;-80
2023/10/10 03:13:27;;;;;;;4.80;2.37;;;;;;;13.28;61.54;97200.31;5004513;28;20665;-74
2023/10/10 03:19:26;;;;;;;6.90;2.50;;;;;;;13.13;62.29;97175.16;5001605;28;20661;-72
2023/10/10 03:27:36;;;;;;;7.97;3.70;;;;;;;12.80;63.54;97181.16;5006971;28;20193;-76
2023/10/10 03:29:50;;;;;;;5.23;3.03;;;;;;;12.94;63.45;97183.06;5006793;28;20202;-74
2023/10/10 03:35:06;;;;;;;10.90;4.27;;;;;;;13.33;61.86;97190.50;4999104;28;20683;-76
2023/10/10 03:37:43;;;;;;;7.30;4.30;;;;;;;13.44;62.02;97185.53;5012210;28;20251;-72
2023/10/10 05:25:37;;;;;;;6.23;3.37;;;;;;;14.21;60.43;97221.06;4988735;28;20274;-71
2023/10/10 05:28:05;;;;;;;8.27;3.27;;;;;;;14.00;61.24;97242.28;4990713;28;20227;-71
2023/10/10 05:30:44;;;;;;;5.67;3.37;;;;;;;13.83;61.25;97244.06;4988014;28;20263;-72
2023/10/10 05:33:13;;;;;;;5.43;2.83;;;;;;;13.61;63.12;97245.31;4992154;28;20735;-75
2023/10/10 05:35:49;;;;;;;5.97;2.77;;;;;;;13.69;62.37;97254.41;4992394;28;20194;-76
2023/10/10 05:38:16;;;;;;;3.67;2.90;;;;;;;13.97;63.03;97255.47;5001695;28;20278;-74
2023/10/10 05:40:46;;;;;;;4.07;2.93;;;;;;;14.30;62.00;97271.84;4998889;28;20188;-73
2023/10/10 05:43:15;;;;;;;6.73;3.30;;;;;;;14.56;62.00;97271.19;4989641;28;20196;-74
2023/10/10 05:45:44;;;;;;;6.30;2.80;;;;;;;14.93;61.36;97272.47;4994479;28;20230;-77
2023/10/10 05:48:12;;;;;;;6.50;3.70;;;;;;;15.25;60.50;97264.41;5009035;28;20239;-79
2023/10/10 05:50:42;;;;;;;7.83;3.20;;;;;;;15.43;60.63;97262.50;5007245;28;20621;-78
2023/10/10 05:53:10;;;;;;;5.50;3.13;;;;;;;15.44;61.19;97253.72;5007344;28;20797;-79
2023/10/10 05:55:38;;;;;;;6.13;3.10;;;;;;;15.52;61.28;97269.72;5005930;28;20220;-81
2023/10/10 05:58:06;;;;;;;6.20;3.17;;;;;;;15.78;61.22;97268.13;5008674;28;20200;-71
2023/10/10 06:00:36;;;;;;;5.10;3.10;;;;;;;16.05;61.05;97279.44;5006870;28;20192;-79
2023/10/10 06:03:05;;;;;;;6.13;3.23;;;;;;;16.27;60.68;97271.91;5010123;28;20640;-81
2023/10/10 06:05:34;;;;;;;7.17;3.30;;;;;;;16.64;60.57;97286.91;5006894;28;20681;-71
2023/10/10 06:08:02;;;;;;;8.73;3.47;;;;;;;16.69;60.06;97261.25;5006280;28;20285;-70
2023/10/10 06:10:33;;;;;;;7.43;3.53;;;;;;;16.87;59.60;97267.91;5006220;28;20219;-70
2023/10/10 06:13:04;;;;;;;5.90;4.30;;;;;;;16.93;59.80;97279.72;5012036;28;20211;-75
2023/10/10 06:15:34;;;;;;;4.83;2.93;;;;;;;17.03;59.50;97288.63;5011991;28;20188;-84
2023/10/10 06:18:12;;;;;;;5.90;2.87;;;;;;;16.95;59.91;97277.84;5008209;28;20204;-72
2023/10/10 06:20:42;;;;;;;7.70;3.80;;;;;;;17.03;59.65;97291.25;5010212;28;20199;-72
2023/10/10 06:23:32;;;;;;;27.37;5.07;;;;;;;17.04;59.56;97279.84;5006135;28;20208;-72
2023/10/10 06:26:07;;;;;;;7.50;3.57;;;;;;;17.01;59.46;97269.59;5008414;28;20682;-75
2023/10/10 06:28:45;;;;;;;9.90;3.77;;;;;;;17.03;59.23;97278.16;4989865;28;20706;-71
2023/10/10 06:31:17;;;;;;;7.60;3.13;;;;;;;17.05;59.11;97271.03;5005612;28;20277;-75
2023/10/10 06:34:25;;;;;;;5.63;3.17;;;;;;;17.08;58.66;97268.25;5006237;28;20293;-73
2023/10/10 06:37:51;;;;;;;5.40;3.20;;;;;;;17.15;59.03;97279.09;4988737;28;20196;-73
2023/10/10 06:41:17;;;;;;;6.77;3.17;;;;;;;17.02;59.08;97276.50;5006487;28;20224;-74
2023/10/10 06:44:39;;;;;;;6.67;3.53;;;;;;;17.06;59.11;97293.69;5004960;28;20184;-71
2023/10/10 06:48:01;;;;;;;6.07;3.13;;;;;;;17.08;59.18;97294.41;5006762;28;20190;-71
2023/10/10 06:51:22;;;;;;;7.53;3.20;;;;;;;17.13;58.77;97294.06;5005327;28;20193;-71
2023/10/10 06:54:44;;;;;;;9.87;3.60;;;;;;;17.16;59.08;97302.56;5006508;28;20247;-74
2023/10/10 06:58:06;;;;;;;10.50;3.80;;;;;;;17.22;59.08;97303.94;5008262;28;20196;-70
2023/10/10 07:01:28;;;;;;;11.07;3.93;;;;;;;17.30;58.70;97293.78;5011451;28;20794;-72
2023/10/10 07:04:54;;;;;;;4.43;3.00;;;;;;;17.27;58.22;97307.91;5006685;28;20222;-72
2023/10/10 07:08:27;;;;;;;7.83;3.57;;;;;;;17.30;57.99;97296.38;5004629;28;20205;-76
2023/10/10 07:10:55;;;;;;;4.63;3.17;;;;;;;17.39;57.96;97290.53;5006090;28;20202;-72
2023/10/10 07:13:29;;;;;;;9.13;3.80;;;;;;;17.49;57.57;97302.94;5005900;28;20281;-72
2023/10/10 07:15:57;;;;;;;9.57;3.30;;;;;;;17.72;56.96;97302.13;5006215;28;20215;-71
2023/10/10 07:18:25;;;;;;;7.90;3.50;;;;;;;17.93;56.24;97297.16;5004712;28;20212;-73
2023/10/10 07:21:07;;;;;;;6.57;3.30;;;;;;;18.01;55.73;97312.38;4989097;28;20259;-75
2023/10/10 07:24:02;;;;;;;8.87;3.50;;;;;;;17.87;56.00;97303.69;5004526;28;20193;-72
2023/10/10 07:26:31;;;;;;;6.93;3.47;;;;;;;17.69;56.46;97298.91;5005345;28;20571;-71
2023/10/10 07:29:57;;;;;;;6.17;3.10;;;;;;;17.63;56.83;97305.41;5004661;28;20340;-71
2023/10/10 07:32:27;;;;;;;7.17;2.97;;;;;;;17.55;56.99;97307.75;4984764;28;20277;-75
2023/10/10 07:34:56;;;;;;;5.10;3.00;;;;;;;17.70;57.11;97311.06;4985978;28;20221;-71
2023/10/10 07:37:23;;;;;;;6.30;3.23;;;;;;;17.73;57.01;97313.47;4985794;28;20227;-75
2023/10/10 07:39:57;;;;;;;8.03;4.20;;;;;;;17.76;57.31;97321.94;4995179;28;20209;-72
2023/10/10 07:43:04;;;;;;;4.73;3.40;;;;;;;17.78;56.66;97325.28;5013765;28;20197;-72
2023/10/10 07:45:45;;;;;;;7.83;3.43;;;;;;;17.79;56.98;97306.03;5005949;28;20202;-72
2023/10/10 07:50:49;;;;;;;5.83;3.20;;;;;;;17.89;56.75;97316.69;5004755;28;20220;-76
2023/10/10 07:53:17;;;;;;;7.57;3.93;;;;;;;17.82;56.80;97295.34;5007446;28;20606;-72
2023/10/10 07:58:49;;;;;;;8.40;3.33;;;;;;;18.03;56.55;97319.19;5008042;28;20201;-72
2023/10/10 08:02:13;;;;;;;5.63;3.70;;;;;;;18.34;56.18;97321.25;5008241;28;20284;-71
2023/10/10 08:05:42;;;;;;;8.80;3.63;;;;;;;18.31;56.37;97339.00;4992058;28;20213;-72
2023/10/10 08:09:37;;;;;;;5.23;3.50;;;;;;;18.41;56.83;97340.03;5007134;28;20295;-79
2023/10/10 08:12:31;;;;;;;6.07;3.43;;;;;;;18.34;56.25;97354.53;5008728;28;20209;-72
2023/10/10 08:15:17;;;;;;;6.30;3.90;;;;;;;18.31;56.52;97323.28;4991366;28;20195;-74
2023/10/10 08:17:55;;;;;;;9.27;4.43;;;;;;;18.46;56.25;97337.94;4991482;28;20244;-71
2023/10/10 08:20:35;;;;;;;8.33;5.83;;;;;;;18.30;56.75;97317.19;5008065;28;20204;-71
2023/10/10 08:23:04;;;;;;;8.10;3.80;;;;;;;18.50;56.35;97339.41;5009200;28;20208;-72
2023/10/10 08:25:37;;;;;;;7.30;3.30;;;;;;;18.32;57.77;97340.69;5011600;28;20579;-71
2023/10/10 08:28:05;;;;;;;7.00;4.40;;;;;;;18.10;58.70;97340.53;5009886;28;20555;-73
2023/10/10 08:30:33;;;;;;;6.07;3.67;;;;;;;18.16;58.58;97350.59;5008228;28;20208;-75
2023/10/10 08:33:02;;;;;;;6.13;3.97;;;;;;;18.22;58.73;97344.91;5007315;28;20205;-72
2023/10/10 08:35:36;;;;;;;6.57;3.63;;;;;;;18.08;58.97;97342.44;5009288;28;20216;-71
2023/10/10 08:38:07;;;;;;;5.33;3.60;;;;;;;18.17;59.25;97352.28;5007394;28;20209;-70
2023/10/10 08:40:36;;;;;;;6.23;3.87;;;;;;;18.26;59.06;97352.44;5007034;28;20335;-72
2023/10/10 08:43:04;;;;;;;7.43;4.17;;;;;;;18.50;58.09;97352.50;5007582;28;20313;-71
2023/10/10 08:45:39;;;;;;;4.93;4.00;;;;;;;18.45;58.67;97349.38;5008412;28;20259;-71
2023/10/10 08:48:13;;;;;;;6.47;3.87;;;;;;;18.55;58.47;97339.88;5008785;28;20236;-73
2023/10/10 08:50:44;;;;;;;6.50;4.73;;;;;;;18.51;58.92;97341.06;5006966;28;20221;-71
2023/10/10 08:53:13;;;;;;;4.83;4.30;;;;;;;18.91;58.08;97345.06;5008052;28;20888;-72
2023/10/10 08:55:41;;;;;;;5.57;3.97;;;;;;;19.00;57.42;97341.75;5006752;28;20242;-72
2023/10/10 08:58:09;;;;;;;8.53;4.43;;;;;;;18.91;57.51;97320.59;5007636;28;20194;-71
2023/10/10 09:00:37;;;;;;;6.37;3.67;;;;;;;18.95;58.22;97329.94;5006686;28;20246;-73
2023/10/10 09:03:08;;;;;;;11.33;4.50;;;;;;;19.03;57.73;97331.03;5007548;28;20605;-72
2023/10/10 09:05:36;;;;;;;8.67;4.50;;;;;;;19.17;57.40;97348.38;5009311;28;20874;-75
2023/10/10 09:08:16;;;;;;;8.17;4.70;;;;;;;19.14;57.51;97344.22;5009720;28;20742;-72
2023/10/10 09:10:46;;;;;;;5.93;4.00;;;;;;;19.20;56.99;97349.00;5008427;28;20210;-72
2023/10/10 09:13:16;;;;;;;8.97;4.60;;;;;;;19.22;57.50;97348.88;5008676;28;20191;-76
2023/10/10 09:15:56;;;;;;;6.47;3.87;;;;;;;19.57;56.53;97343.59;5006785;28;20210;-70
2023/10/10 09:18:25;;;;;;;6.43;3.90;;;;;;;19.79;55.72;97343.59;5008383;28;20828;-69
2023/10/10 09:21:17;;;;;;;9.23;4.10;;;;;;;19.70;56.09;97318.88;5006106;28;20310;-72
2023/10/10 09:24:07;;;;;;;6.27;4.47;;;;;;;19.45;56.47;97340.13;5006132;28;20678;-69
2023/10/10 09:26:36;;;;;;;11.20;4.60;;;;;;;19.69;56.20;97332.97;5007868;28;20305;-71
2023/10/10 09:29:15;;;;;;;8.07;3.97;;;;;;;19.89;55.50;97342.78;4973217;28;20276;-74
2023/10/10 09:31:58;;;;;;;7.63;4.07;;;;;;;19.69;56.21;97347.91;4989914;28;20199;-71
2023/10/10 09:34:35;;;;;;;6.63;4.03;;;;;;;19.77;56.12;97335.00;5006042;28;20694;-71
2023/10/10 09:37:07;;;;;;;5.27;3.90;;;;;;;19.85;55.20;97348.38;5006946;28;20647;-71
2023/10/10 09:39:40;;;;;;;6.10;4.20;;;;;;;19.62;56.09;97352.78;5008030;28;20198;-72
2023/10/10 09:42:22;;;;;;;6.40;3.87;;;;;;;19.88;55.89;97356.88;4989421;28;20198;-72
2023/10/10 09:44:53;;;;;;;7.70;3.60;;;;;;;19.62;55.63;97355.41;5007488;28;20253;-77
2023/10/10 09:50:30;;;;;;;7.97;4.00;;;;;;;19.80;55.77;97348.75;5025682;28;20288;-72
2023/10/10 09:52:58;;;;;;;7.40;4.07;;;;;;;20.17;54.74;97362.50;4978382;28;20265;-70
2023/10/10 10:09:08;;;;;;;5.23;3.60;;;;;;;19.82;55.65;97359.16;5006779;28;20230;-74
2023/10/10 10:11:52;;;;;;;4.97;3.57;;;;;;;19.64;56.03;97342.19;5006874;28;20282;-72
2023/10/10 10:14:35;;;;;;;6.60;3.47;;;;;;;19.15;57.35;97335.34;5007422;28;20183;-75
2023/10/10 10:17:13;;;;;;;9.33;3.77;;;;;;;19.28;56.89;97337.91;5005769;28;20255;-75
2023/10/10 10:19:45;;;;;;;4.97;3.63;;;;;;;19.26;56.99;97340.66;5006651;28;20199;-72
2023/10/10 10:22:21;;;;;;;4.23;3.53;;;;;;;19.25;56.99;97340.75;4989722;28;20198;-75
2023/10/10 10:25:20;;;;;;;7.10;3.67;;;;;;;19.21;57.36;97337.53;4988789;28;20293;-73
2023/10/10 10:27:49;;;;;;;5.37;3.60;;;;;;;19.67;55.59;97318.28;5006701;28;20280;-72
2023/10/10 10:32:55;;;;;;;6.00;3.10;;;;;;;20.05;54.59;97329.28;5006643;28;20253;-70
2023/10/10 10:35:45;;;;;;;7.43;3.37;;;;;;;19.69;55.51;97321.63;5005944;28;20230;-71
2023/10/10 10:38:13;;;;;;;5.00;2.83;;;;;;;19.94;55.23;97309.09;4989479;28;20217;-72
2023/10/10 10:40:48;;;;;;;3.13;2.50;;;;;;;19.87;55.23;97305.25;5005137;28;20195;-71
2023/10/10 10:43:21;;;;;;;5.83;2.77;;;;;;;19.81;54.96;97302.25;5006546;28;20199;-70
2023/10/10 10:45:52;;;;;;;2.97;2.43;;;;;;;19.65;54.97;97314.94;5005115;28;20187;-72
2023/10/10 10:48:29;;;;;;;4.77;3.00;;;;;;;19.63;55.31;97306.34;5006621;28;20195;-73
2023/10/10 10:51:41;;;;;;;4.47;2.50;;;;;;;19.64;54.87;97297.50;5004673;28;20694;-73
2023/10/10 10:53:58;;;;;;;3.50;2.50;;;;;;;19.53;54.52;97321.97;5006222;28;20246;-71
2023/10/10 10:59:12;;;;;;;3.43;2.33;;;;;;;19.82;54.26;97314.47;5005945;28;20191;-73
2023/10/10 11:01:59;;;;;;;3.63;2.77;;;;;;;19.82;54.12;97309.22;5005041;28;20193;-72
2023/10/10 11:07:07;;;;;;;5.63;2.40;;;;;;;19.70;54.54;97324.13;5006273;28;20202;-73
2023/10/10 11:09:37;;;;;;;2.47;2.07;;;;;;;19.64;54.70;97313.28;5005970;28;20283;-72
2023/10/10 11:12:06;;;;;;;3.57;2.23;;;;;;;19.50;54.78;97316.94;5004872;28;20654;-72
2023/10/10 11:14:46;;;;;;;3.50;2.40;;;;;;;19.58;54.49;97324.25;5006484;28;20191;-69
2023/10/10 11:17:19;;;;;;;4.00;2.40;;;;;;;19.56;54.30;97305.16;5004761;28;20198;-73
2023/10/10 11:19:54;;;;;;;4.60;2.70;;;;;;;19.58;53.81;97327.69;5007116;28;20272;-71
2023/10/10 11:22:41;;;;;;;3.63;2.07;;;;;;;19.53;53.58;97321.13;5006766;28;20232;-73
2023/10/10 11:25:11;;;;;;;3.87;1.67;;;;;;;19.43;54.24;97334.97;5005096;28;20195;-71
2023/10/10 11:27:43;;;;;;;4.33;2.47;;;;;;;19.44;54.15;97334.03;5006429;28;20195;-73
2023/10/10 11:30:24;;;;;;;2.80;2.13;;;;;;;19.41;54.75;97338.69;5009702;28;20222;-74
2023/10/10 11:33:16;;;;;;;2.63;2.10;;;;;;;19.30;54.38;97322.88;5010236;28;20202;-75
2023/10/10 11:35:41;;;;;;;2.43;2.03;;;;;;;19.29;55.01;97323.81;5008408;28;20195;-73
2023/10/10 11:38:16;;;;;;;2.60;2.30;;;;;;;19.43;54.36;97316.56;4992604;28;20198;-71
2023/10/10 11:40:52;;;;;;;3.67;2.37;;;;;;;19.50;54.91;97327.47;5008758;28;20197;-73
2023/10/10 11:43:22;;;;;;;5.00;2.50;;;;;;;19.47;55.31;97336.41;5009265;28;20622;-75
2023/10/10 11:45:53;;;;;;;4.50;2.33;;;;;;;19.37;55.79;97335.44;5001641;28;20191;-71
2023/10/10 11:48:23;;;;;;;3.93;2.70;;;;;;;19.33;55.76;97335.78;5009073;28;20202;-71
2023/10/10 11:50:56;;;;;;;5.07;2.80;;;;;;;19.40;55.74;97339.63;5009222;28;20207;-72
2023/10/10 11:53:24;;;;;;;3.70;2.50;;;;;;;19.22;56.44;97338.38;5008193;28;20195;-71
2023/10/10 11:56:01;;;;;;;3.90;2.10;;;;;;;19.21;55.88;97365.56;5009089;28;20674;-71
2023/10/10 11:58:37;;;;;;;4.53;2.20;;;;;;;19.19;55.61;97355.19;5008671;28;20320;-70
2023/10/10 12:01:10;;;;;;;3.80;2.10;;;;;;;19.08;56.03;97326.25;5009333;28;20382;-71
2023/10/10 12:06:26;;;;;;;3.10;2.33;;;;;;;19.36;55.38;97348.69;5010352;28;20194;-72
2023/10/10 12:08:54;;;;;;;6.03;2.53;;;;;;;19.42;55.35;97341.19;5007124;28;20701;-71
2023/10/10 12:11:21;;;;;;;4.10;2.60;;;;;;;19.57;55.03;97338.34;5009543;28;20195;-70
2023/10/10 12:13:51;;;;;;;5.70;2.50;;;;;;;19.67;54.94;97334.88;5009129;28;20217;-70
2023/10/10 12:16:23;;;;;;;3.27;2.50;;;;;;;19.80;53.98;97334.78;5009387;28;20198;-73
2023/10/10 12:18:55;;;;;;;4.37;2.63;;;;;;;19.82;52.74;97340.75;5009116;28;20187;-75
2023/10/10 12:21:23;;;;;;;2.60;2.40;;;;;;;19.87;52.88;97328.91;5009134;28;20187;-70
2023/10/10 12:23:55;;;;;;;4.50;2.60;;;;;;;19.92;53.00;97331.19;5009120;28;20218;-68
2023/10/10 12:26:29;;;;;;;7.43;2.83;;;;;;;19.88;52.90;97321.88;5008713;28;20203;-70
2023/10/10 12:28:57;;;;;;;3.77;2.43;;;;;;;19.84;53.87;97328.31;5007753;28;20202;-69
2023/10/10 12:31:24;;;;;;;4.43;2.50;;;;;;;19.91;53.84;97321.59;5008453;28;20195;-73
2023/10/10 12:33:54;;;;;;;4.03;2.43;;;;;;;20.03;53.56;97325.94;5007380;28;20198;-81
2023/10/10 12:36:23;;;;;;;4.27;2.63;;;;;;;20.03;53.55;97331.19;5007277;28;20191;-73
2023/10/10 12:38:50;;;;;;;3.33;2.50;;;;;;;20.08;53.33;97336.91;5006591;28;20202;-71
2023/10/10 12:41:20;;;;;;;3.00;2.60;;;;;;;20.02;53.05;97340.03;5007302;28;20253;-71
2023/10/10 12:43:51;;;;;;;5.07;2.63;;;;;;;19.89;53.75;97328.78;5008564;28;20315;-70
2023/10/10 12:46:20;;;;;;;5.20;2.80;;;;;;;19.89;53.74;97320.91;5007821;28;20275;-72
2023/10/10 12:48:51;;;;;;;4.23;2.40;;;;;;;19.88;53.75;97327.13;5007779;28;20317;-70
2023/10/10 12:51:22;;;;;;;3.30;2.90;;;;;;;19.77;54.45;97324.50;5008795;28;20272;-70
2023/10/10 12:53:59;;;;;;;5.43;2.67;;;;;;;19.88;53.98;97333.22;5008562;28;20195;-73
2023/10/10 12:56:28;;;;;;;4.37;2.60;;;;;;;19.76;54.54;97328.94;5008079;28;20222;-71
2023/10/10 12:59:03;;;;;;;5.43;2.87;;;;;;;19.76;54.80;97323.69;5007197;28;20286;-71
2023/10/10 13:01:55;;;;;;;9.07;2.87;;;;;;;19.71;54.88;97322.34;5008484;28;20193;-69
2023/10/10 13:04:28;;;;;;;3.80;2.37;;;;;;;19.70;54.70;97312.78;5007305;28;20249;-71
2023/10/10 13:07:04;;;;;;;5.03;3.00;;;;;;;19.79;54.70;97333.94;5008002;28;20607;-71
2023/10/10 13:09:33;;;;;;;6.97;2.93;;;;;;;19.77;55.07;97346.34;5008024;28;20227;-71
2023/10/10 13:12:03;;;;;;;4.80;2.53;;;;;;;19.79;55.14;97338.34;5008895;28;20227;-82
2023/10/10 13:14:34;;;;;;;6.20;4.20;;;;;;;19.77;54.80;97335.00;5008114;28;20519;-71
2023/10/10 13:20:04;;;;;;;6.80;2.97;;;;;;;19.87;54.89;97341.22;4975101;28;20265;-71
2023/10/10 13:22:32;;;;;;;4.57;2.80;;;;;;;19.89;54.74;97347.19;5008307;28;20191;-71
2023/10/10 13:24:59;;;;;;;3.07;2.50;;;;;;;19.80;54.70;97340.88;5007016;28;20558;-71
2023/10/10 13:27:26;;;;;;;4.23;2.80;;;;;;;19.87;54.77;97339.44;5008230;28;20199;-71
2023/10/10 13:29:53;;;;;;;3.23;2.27;;;;;;;19.85;54.56;97351.00;5006967;28;20783;-74
2023/10/10 13:32:20;;;;;;;4.67;2.20;;;;;;;19.73;55.14;97349.34;5006265;28;20201;-69
2023/10/10 13:34:48;;;;;;;3.63;2.23;;;;;;;19.67;54.74;97345.41;5006329;28;20192;-70
2023/10/10 13:37:15;;;;;;;2.87;1.90;;;;;;;19.61;55.01;97340.63;5006611;28;20624;-71
2023/10/10 13:39:48;;;;;;;3.67;2.60;;;;;;;19.78;55.06;97337.53;5007708;28;20222;-72
2023/10/10 13:42:17;;;;;;;4.20;2.20;;;;;;;19.72;55.17;97355.56;4974722;28;20282;-71
2023/10/10 13:44:48;;;;;;;4.33;2.50;;;;;;;19.70;55.78;97342.50;5007631;28;20194;-69
2023/10/10 13:47:16;;;;;;;4.43;2.10;;;;;;;19.56;56.06;97353.25;5006545;28;20663;-72
2023/10/10 13:49:44;;;;;;;3.60;2.30;;;;;;;19.68;55.95;97341.00;5005846;28;20233;-70
2023/10/10 13:52:13;;;;;;;3.77;2.47;;;;;;;19.61;55.79;97339.78;5007299;28;20190;-71
2023/10/10 13:55:21;;;;;;;5.37;3.10;;;;;;;19.70;55.70;97347.78;5007593;28;20223;-73
2023/10/10 13:58:03;;;;;;;3.53;2.53;;;;;;;19.65;55.76;97338.59;5007354;28;20203;-74
2023/10/10 14:00:35;;;;;;;4.80;3.00;;;;;;;19.76;55.91;97336.81;4995648;28;20260;-71
2023/10/10 14:03:04;;;;;;;3.80;2.80;;;;;;;19.80;55.86;97340.88;5001904;28;20616;-71
2023/10/10 14:05:34;;;;;;;4.67;3.00;;;;;;;19.67;56.31;97328.78;5005567;28;20649;-76
2023/10/10 14:08:07;;;;;;;3.97;2.90;;;;;;;19.73;56.37;97331.78;5007616;28;20278;-71
2023/10/10 14:10:41;;;;;;;4.63;2.93;;;;;;;19.79;56.09;97343.59;5011005;28;20241;-72
2023/10/10 14:13:18;;;;;;;4.47;3.43;;;;;;;19.66;56.39;97343.72;5011522;28;20198;-77
2023/10/10 14:15:57;;;;;;;4.43;3.13;;;;;;;19.70;56.27;97345.16;5007768;28;20201;-71
2023/10/10 14:18:51;;;;;;;3.40;2.77;;;;;;;19.76;56.25;97351.75;5006819;28;20206;-71
2023/10/10 14:21:29;;;;;;;4.90;2.60;;;;;;;19.53;56.71;97342.16;4992835;28;20213;-75
2023/10/10 14:24:04;;;;;;;5.17;2.60;;;;;;;19.47;57.18;97352.16;5006318;28;20195;-71
2023/10/10 14:26:34;;;;;;;3.20;2.90;;;;;;;19.42;57.22;97342.97;5007056;28;20602;-71
2023/10/10 14:29:05;;;;;;;4.53;2.80;;;;;;;19.43;57.83;97358.59;5005492;28;20221;-80
2023/10/10 14:31:33;;;;;;;5.00;3.00;;;;;;;19.28;58.24;97369.41;5006837;28;20229;-74
2023/10/10 14:34:02;;;;;;;6.00;2.73;;;;;;;19.25;58.32;97362.59;5012279;28;20195;-79
2023/10/10 14:36:30;;;;;;;5.50;2.43;;;;;;;19.17;58.49;97357.09;5005213;28;20278;-72
2023/10/10 14:38:57;;;;;;;2.67;2.30;;;;;;;19.06;58.58;97354.41;5007095;28;20194;-72
2023/10/10 14:41:32;;;;;;;6.93;2.63;;;;;;;19.18;58.54;97365.81;5006271;28;20226;-72
2023/10/10 14:44:03;;;;;;;3.60;2.53;;;;;;;19.27;58.40;97368.56;5006519;28;20326;-75
2023/10/10 14:46:32;;;;;;;2.87;2.60;;;;;;;19.28;58.46;97370.25;5005551;28;20190;-73
2023/10/10 14:49:16;;;;;;;3.63;2.43;;;;;;;19.37;57.98;97379.28;5005637;28;20209;-72
2023/10/10 14:51:48;;;;;;;4.73;2.50;;;;;;;19.32;58.39;97374.34;5006356;28;20294;-71
2023/10/10 14:54:19;;;;;;;4.20;2.77;;;;;;;19.32;58.39;97376.97;5007608;28;20691;-71
2023/10/10 14:56:46;;;;;;;3.00;2.57;;;;;;;19.27;58.60;97372.97;5007921;28;21003;-71
2023/10/10 14:59:18;;;;;;;6.40;2.60;;;;;;;19.17;58.23;97367.59;5007117;28;20209;-71
2023/10/10 15:01:48;;;;;;;4.60;1.93;;;;;;;19.10;58.78;97376.88;5006668;28;20206;-72
2023/10/10 15:04:18;;;;;;;3.27;2.50;;;;;;;19.13;58.88;97371.41;5007207;28;20273;-70
2023/10/10 15:06:47;;;;;;;3.50;2.50;;;;;;;19.07;59.10;97377.09;5004953;28;20194;-73
2023/10/10 15:09:19;;;;;;;3.70;2.53;;;;;;;19.03;59.74;97383.53;5005649;28;20214;-72